Skip to main content.
Station Historical Data
 
Daily Summary for August 23, 2019 Units:  Both    English   Metric
« Previous Day
Next Day »
Daily Weekly Monthly Yearly Custom
  Current: High: Low: Average:
Temperature: 68.4 °F /  20.2 °C 69.3 °F /  20.7 °C 64 °F /  17.8 °C 66.4 °F /  19.1 °C
Dew Point: 67.1 °F /  19.5 °C 67.1 °F /  19.5 °C 62.6 °F /  17.0 °C 64.2 °F /  17.9 °C
Humidity: 96% 96% 89% 93%
Wind Speed: 6.5mph /  10.5km/h 9.5mph /  15.3km/h - 4.5mph /  7.2km/h
Wind Gust: 9.2mph /  14.8km/h 14mph /  22.5km/h - -
WindEast - - ESE
Pressure: 30 in /  1016.2 hPa 30 in /  1016.6 hPa 29.9 in /  1013.8 hPa -
Precipitation: 0.32 in /  8.1 mm      
Historical Graphs
 
 
Tabular Data for August 23, 2019
Time Temperature Dew Point Pressure Wind Wind Speed Wind Gust Humidity Rainfall Rate (Hourly) solar Conditions
00:00 68.5 °F /  20.3 °C 65.8 °F /  18.8 °C 30in /  1014.4hPa ESE 5.4mph /  8.7km/h 8.1mph /  13.0km/h 91% 0in /  0.0mm 0.00 W/m2 RA
00:05 68.5 °F /  20.3 °C 65.8 °F /  18.8 °C 30in /  1014.4hPa ESE 5.4mph /  8.7km/h 7mph /  11.3km/h 91% 0in /  0.0mm 0.00 W/m2 RA
00:10 68.5 °F /  20.3 °C 65.8 °F /  18.8 °C 30in /  1014.5hPa ESE 4.8mph /  7.7km/h 6.9mph /  11.1km/h 91% 0in /  0.0mm 0.00 W/m2 RA
00:15 68.5 °F /  20.3 °C 65.5 °F /  18.6 °C 30in /  1014.4hPa ESE 4.1mph /  6.6km/h 7mph /  11.3km/h 90% 0in /  0.0mm 0.00 W/m2 CLR
00:20 68.4 °F /  20.2 °C 65.5 °F /  18.6 °C 30in /  1014.4hPa ESE 3.7mph /  6.0km/h 5.8mph /  9.3km/h 90% 0in /  0.0mm 0.00 W/m2 CLR
00:25 68.4 °F /  20.2 °C 65.7 °F /  18.7 °C 30in /  1014.4hPa East 5.1mph /  8.2km/h 6mph /  9.7km/h 91% 0in /  0.0mm 0.00 W/m2 CLR
00:30 68.2 °F /  20.1 °C 65.5 °F /  18.6 °C 30in /  1014.5hPa East 4.6mph /  7.4km/h 7mph /  11.3km/h 91% 0in /  0.0mm 0.00 W/m2 CLR
00:35 68 °F /  20.0 °C 65.3 °F /  18.5 °C 30in /  1014.7hPa East 3.7mph /  6.0km/h 4.6mph /  7.4km/h 91% 0in /  0.0mm 0.00 W/m2 CLR
00:40 68 °F /  20.0 °C 65.3 °F /  18.5 °C 30in /  1014.7hPa East 6.3mph /  10.1km/h 10.4mph /  16.7km/h 91% 0in /  0.0mm 0.00 W/m2 CLR
00:45 67.8 °F /  19.9 °C 65.1 °F /  18.4 °C 30in /  1014.8hPa ENE 4.8mph /  7.7km/h 6.9mph /  11.1km/h 91% 0in /  0.0mm 0.00 W/m2 CLR
00:50 67.8 °F /  19.9 °C 65.1 °F /  18.4 °C 30in /  1015.0hPa ESE 4.6mph /  7.4km/h 5.8mph /  9.3km/h 91% 0in /  0.0mm 0.00 W/m2 CLR
00:55 67.8 °F /  19.9 °C 65.1 °F /  18.4 °C 30in /  1015.0hPa East 2.6mph /  4.2km/h 4.6mph /  7.4km/h 91% 0in /  0.0mm 0.00 W/m2 CLR
01:00 67.8 °F /  19.9 °C 65.1 °F /  18.4 °C 30in /  1014.9hPa East 2.9mph /  4.7km/h 3.5mph /  5.6km/h 91% 0in /  0.0mm 0.00 W/m2 CLR
01:05 67.8 °F /  19.9 °C 65.1 °F /  18.4 °C 30in /  1014.9hPa East 2.8mph /  4.5km/h 4.6mph /  7.4km/h 91% 0in /  0.0mm 0.00 W/m2 CLR
01:10 67.6 °F /  19.8 °C 64.9 °F /  18.3 °C 30in /  1014.9hPa East 1.6mph /  2.6km/h 3.5mph /  5.6km/h 91% 0in /  0.0mm 0.00 W/m2 CLR
01:15 67.6 °F /  19.8 °C 64.9 °F /  18.3 °C 30in /  1014.8hPa ENE 3.7mph /  6.0km/h 4.6mph /  7.4km/h 91% 0in /  0.0mm 0.00 W/m2 CLR
01:20 67.6 °F /  19.8 °C 64.9 °F /  18.3 °C 30in /  1014.7hPa East 3.7mph /  6.0km/h 4.6mph /  7.4km/h 91% 0in /  0.0mm 0.00 W/m2 CLR
01:25 67.5 °F /  19.7 °C 64.8 °F /  18.2 °C 30in /  1014.7hPa East 4.3mph /  6.9km/h 5.8mph /  9.3km/h 91% 0in /  0.0mm 0.00 W/m2 CLR
01:30 67.3 °F /  19.6 °C 64.6 °F /  18.1 °C 30in /  1014.6hPa East 4.6mph /  7.4km/h 5.8mph /  9.3km/h 91% 0in /  0.0mm 0.00 W/m2 CLR
01:35 67.3 °F /  19.6 °C 64.6 °F /  18.1 °C 30in /  1014.6hPa East 4.8mph /  7.7km/h 6.9mph /  11.1km/h 91% 0in /  0.0mm 0.00 W/m2 CLR
01:40 67.1 °F /  19.5 °C 64.4 °F /  18.0 °C 30in /  1014.5hPa East 4.4mph /  7.1km/h 6.9mph /  11.1km/h 91% 0in /  0.0mm 0.00 W/m2 CLR
01:45 66.9 °F /  19.4 °C 64.2 °F /  17.9 °C 30in /  1014.4hPa East 4mph /  6.4km/h 4.6mph /  7.4km/h 91% 0in /  0.0mm 0.00 W/m2 CLR
01:50 66.9 °F /  19.4 °C 64.2 °F /  17.9 °C 30in /  1014.4hPa East 3.1mph /  5.0km/h 5mph /  8.0km/h 91% 0in /  0.0mm 0.00 W/m2 CLR
01:55 66.9 °F /  19.4 °C 64.2 °F /  17.9 °C 30in /  1014.2hPa East 3.9mph /  6.3km/h 4.6mph /  7.4km/h 91% 0in /  0.0mm 0.00 W/m2 CLR
02:00 66.9 °F /  19.4 °C 64.2 °F /  17.9 °C 30in /  1014.2hPa East 3.6mph /  5.8km/h 4mph /  6.4km/h 91% 0in /  0.0mm 0.00 W/m2 CLR
02:05 66.9 °F /  19.4 °C 64.2 °F /  17.9 °C 29.9in /  1014.1hPa East 3.6mph /  5.8km/h 4.6mph /  7.4km/h 91% 0in /  0.0mm 0.00 W/m2 CLR
02:10 66.7 °F /  19.3 °C 64 °F /  17.8 °C 29.9in /  1014.1hPa East 3.2mph /  5.1km/h 4.6mph /  7.4km/h 91% 0in /  0.0mm 0.00 W/m2 CLR
02:15 66.7 °F /  19.3 °C 64.2 °F /  17.9 °C 30in /  1014.2hPa East 4.1mph /  6.6km/h 4.6mph /  7.4km/h 92% 0in /  0.0mm 0.00 W/m2 CLR
02:20 66.6 °F /  19.2 °C 64.2 °F /  17.9 °C 30in /  1014.2hPa East 3.9mph /  6.3km/h 5.8mph /  9.3km/h 92% 0in /  0.0mm 0.00 W/m2 CLR
02:25 66.7 °F /  19.3 °C 64.2 °F /  17.9 °C 30in /  1014.2hPa East 3.7mph /  6.0km/h 5.8mph /  9.3km/h 92% 0in /  0.0mm 0.00 W/m2 CLR
02:30 66.7 °F /  19.3 °C 64.2 °F /  17.9 °C 30in /  1014.2hPa ENE 4.2mph /  6.8km/h 5.8mph /  9.3km/h 92% 0in /  0.0mm 0.00 W/m2 CLR
02:35 66.7 °F /  19.3 °C 64.2 °F /  17.9 °C 29.9in /  1014.1hPa ENE 4.5mph /  7.2km/h 5.8mph /  9.3km/h 92% 0in /  0.0mm 0.00 W/m2 CLR
02:40 66.7 °F /  19.3 °C 64 °F /  17.8 °C 29.9in /  1013.9hPa ENE 5.2mph /  8.4km/h 8.1mph /  13.0km/h 91% 0in /  0.0mm 0.00 W/m2 CLR
02:45 66.6 °F /  19.2 °C 63.9 °F /  17.7 °C 29.9in /  1013.8hPa East 4.1mph /  6.6km/h 6.9mph /  11.1km/h 91% 0in /  0.0mm 0.00 W/m2 CLR
02:50 66.6 °F /  19.2 °C 63.9 °F /  17.7 °C 29.9in /  1013.8hPa East 5.8mph /  9.3km/h 8.1mph /  13.0km/h 91% 0in /  0.0mm 0.00 W/m2 CLR
02:55 66.6 °F /  19.2 °C 63.9 °F /  17.7 °C 29.9in /  1013.9hPa ESE 4.3mph /  6.9km/h 6.9mph /  11.1km/h 91% 0in /  0.0mm 0.00 W/m2 CLR
03:00 66.7 °F /  19.3 °C 64 °F /  17.8 °C 29.9in /  1013.9hPa East 3.8mph /  6.1km/h 5mph /  8.0km/h 91% 0in /  0.0mm 0.00 W/m2 CLR
03:05 66.7 °F /  19.3 °C 63.7 °F /  17.6 °C 29.9in /  1013.9hPa East 4.7mph /  7.6km/h 7mph /  11.3km/h 90% 0in /  0.0mm 0.00 W/m2 CLR
03:10 66.7 °F /  19.3 °C 63.9 °F /  17.7 °C 29.9in /  1013.9hPa ESE 7.1mph /  11.4km/h 8.1mph /  13.0km/h 90% 0in /  0.0mm 0.00 W/m2 CLR
03:15 66.7 °F /  19.3 °C 63.5 °F /  17.5 °C 29.9in /  1013.9hPa ESE 5.4mph /  8.7km/h 8.1mph /  13.0km/h 89% 0in /  0.0mm 0.00 W/m2 CLR
03:20 66.9 °F /  19.4 °C 63.7 °F /  17.6 °C 29.9in /  1014.1hPa East 5.1mph /  8.2km/h 7mph /  11.3km/h 89% 0in /  0.0mm 0.00 W/m2 CLR
03:25 66.7 °F /  19.3 °C 63.5 °F /  17.5 °C 30in /  1014.2hPa ESE 5.1mph /  8.2km/h 7mph /  11.3km/h 89% 0in /  0.0mm 0.00 W/m2 CLR
03:30 66.7 °F /  19.3 °C 63.7 °F /  17.6 °C 30in /  1014.3hPa ESE 4.7mph /  7.6km/h 6.9mph /  11.1km/h 90% 0in /  0.0mm 0.00 W/m2 CLR
03:35 66.6 °F /  19.2 °C 63.5 °F /  17.5 °C 30in /  1014.4hPa ESE 4.6mph /  7.4km/h 6mph /  9.7km/h 90% 0in /  0.0mm 0.00 W/m2 CLR
03:40 66.4 °F /  19.1 °C 63.3 °F /  17.4 °C 30in /  1014.6hPa ESE 3.3mph /  5.3km/h 4.6mph /  7.4km/h 90% 0.01in /  0.3mm 0.00 W/m2 RA
03:45 66.2 °F /  19.0 °C 63.5 °F /  17.5 °C 30in /  1014.8hPa SE 2.4mph /  3.9km/h 3.5mph /  5.6km/h 91% 0.01in /  0.3mm 0.00 W/m2 RA
03:50 66 °F /  18.9 °C 63.3 °F /  17.4 °C 30in /  1014.8hPa SE 3.5mph /  5.6km/h 5mph /  8.0km/h 91% 0.02in /  0.5mm 0.00 W/m2 RA
03:55 65.8 °F /  18.8 °C 63.5 °F /  17.5 °C 30in /  1014.7hPa East 4.8mph /  7.7km/h 6.9mph /  11.1km/h 92% 0.03in /  0.8mm 0.00 W/m2 RA
04:00 65.8 °F /  18.8 °C 63.3 °F /  17.4 °C 30in /  1014.7hPa East 4.4mph /  7.1km/h 6mph /  9.7km/h 92% 0.03in /  0.8mm 0.00 W/m2 RA
04:05 65.7 °F /  18.7 °C 63.3 °F /  17.4 °C 30in /  1014.6hPa East 4.4mph /  7.1km/h 5.8mph /  9.3km/h 92% 0.04in /  1.0mm 0.00 W/m2 RA
04:10 65.5 °F /  18.6 °C 63.1 °F /  17.3 °C 30in /  1014.5hPa East 4.9mph /  7.9km/h 6.9mph /  11.1km/h 92% 0.05in /  1.3mm 0.00 W/m2 RA
04:15 65.5 °F /  18.6 °C 63.3 °F /  17.4 °C 30in /  1014.4hPa East 4.3mph /  6.9km/h 6.9mph /  11.1km/h 93% 0.05in /  1.3mm 0.00 W/m2 RA
04:20 65.3 °F /  18.5 °C 63.1 °F /  17.3 °C 30in /  1014.5hPa ESE 4.2mph /  6.8km/h 6mph /  9.7km/h 93% 0.06in /  1.5mm 0.00 W/m2 RA
04:25 65.1 °F /  18.4 °C 63.1 °F /  17.3 °C 30in /  1014.6hPa ESE 3.6mph /  5.8km/h 4.6mph /  7.4km/h 93% 0.06in /  1.5mm 0.00 W/m2 RA
04:30 65.1 °F /  18.4 °C 63.1 °F /  17.3 °C 30in /  1014.6hPa SE 2.1mph /  3.4km/h 3.5mph /  5.6km/h 93% 0.07in /  1.8mm 0.00 W/m2 RA
04:35 65.1 °F /  18.4 °C 63 °F /  17.2 °C 30in /  1014.6hPa SE 2.8mph /  4.5km/h 3.5mph /  5.6km/h 93% 0.07in /  1.8mm 0.00 W/m2 RA
04:40 65.1 °F /  18.4 °C 63 °F /  17.2 °C 30in /  1014.6hPa ESE 2.9mph /  4.7km/h 4.6mph /  7.4km/h 93% 0.06in /  1.5mm 0.00 W/m2 RA
04:45 64.9 °F /  18.3 °C 63.1 °F /  17.3 °C 30in /  1014.8hPa ESE 4mph /  6.4km/h 4mph /  6.4km/h 94% 0.06in /  1.5mm 0.00 W/m2 CLR
04:50 64.9 °F /  18.3 °C 63.1 °F /  17.3 °C 30in /  1014.8hPa SE 2.7mph /  4.3km/h 3.5mph /  5.6km/h 94% 0.06in /  1.5mm 0.00 W/m2 RA
04:55 64.9 °F /  18.3 °C 63.1 °F /  17.3 °C 30in /  1014.9hPa SE 2.6mph /  4.2km/h 3.5mph /  5.6km/h 94% 0.05in /  1.3mm 0.00 W/m2 RA
05:00 64.9 °F /  18.3 °C 63.1 °F /  17.3 °C 30in /  1015.0hPa SE 2.5mph /  4.0km/h 3.5mph /  5.6km/h 94% 0.05in /  1.3mm 0.00 W/m2 RA
05:05 64.9 °F /  18.3 °C 63.1 °F /  17.3 °C 30in /  1014.9hPa ESE 4.2mph /  6.8km/h 5.8mph /  9.3km/h 94% 0.04in /  1.0mm 0.00 W/m2
05:10 64.9 °F /  18.3 °C 63.1 °F /  17.3 °C 30in /  1015.0hPa SE 4mph /  6.4km/h 8.1mph /  13.0km/h 94% 0.03in /  0.8mm 0.00 W/m2 CLR
05:15 64.9 °F /  18.3 °C 63.1 °F /  17.3 °C 30in /  1015.0hPa ESE 4.2mph /  6.8km/h 5.8mph /  9.3km/h 94% 0.03in /  0.8mm 0.00 W/m2 CLR
05:20 64.9 °F /  18.3 °C 63.1 °F /  17.3 °C 30in /  1014.9hPa ESE 4.7mph /  7.6km/h 6mph /  9.7km/h 94% 0.03in /  0.8mm 0.00 W/m2 RA
05:25 64.9 °F /  18.3 °C 63.1 °F /  17.3 °C 30in /  1014.9hPa ESE 4.2mph /  6.8km/h 6.9mph /  11.1km/h 94% 0.03in /  0.8mm 0.00 W/m2 RA
05:30 64.8 °F /  18.2 °C 63 °F /  17.2 °C 30in /  1014.9hPa SE 3.8mph /  6.1km/h 5.8mph /  9.3km/h 94% 0.02in /  0.5mm 0.00 W/m2 RA
05:35 64.8 °F /  18.2 °C 63 °F /  17.2 °C 30in /  1014.9hPa ESE 3.5mph /  5.6km/h 4.6mph /  7.4km/h 94% 0.02in /  0.5mm 0.00 W/m2 CLR
05:40 64.8 °F /  18.2 °C 63 °F /  17.2 °C 30in /  1014.8hPa SE 4.9mph /  7.9km/h 6.9mph /  11.1km/h 94% 0.02in /  0.5mm 0.00 W/m2 CLR
05:45 64.6 °F /  18.1 °C 62.8 °F /  17.1 °C 30in /  1014.8hPa ESE 4.2mph /  6.8km/h 5.8mph /  9.3km/h 94% 0.02in /  0.5mm 0.00 W/m2 CLR
05:50 64.6 °F /  18.1 °C 62.8 °F /  17.1 °C 30in /  1014.8hPa ESE 3mph /  4.8km/h 5.8mph /  9.3km/h 94% 0.01in /  0.3mm 0.00 W/m2 CLR
05:55 64.4 °F /  18.0 °C 62.6 °F /  17.0 °C 30in /  1014.7hPa SE 2.9mph /  4.7km/h 3.5mph /  5.6km/h 94% 0.01in /  0.3mm 0.00 W/m2 CLR
06:00 64.4 °F /  18.0 °C 62.6 °F /  17.0 °C 30in /  1014.7hPa ESE 3.3mph /  5.3km/h 4.6mph /  7.4km/h 94% 0.01in /  0.3mm 0.00 W/m2 CLR
06:05 64.4 °F /  18.0 °C 63 °F /  17.2 °C 30in /  1014.7hPa ESE 3.3mph /  5.3km/h 4.6mph /  7.4km/h 95% 0.01in /  0.3mm 0.00 W/m2 CLR
06:10 64.2 °F /  17.9 °C 62.8 °F /  17.1 °C 30in /  1014.7hPa ESE 3.2mph /  5.1km/h 4.6mph /  7.4km/h 95% 0.01in /  0.3mm 0.00 W/m2 CLR
06:15 64.2 °F /  17.9 °C 62.8 °F /  17.1 °C 30in /  1014.6hPa ESE 3.8mph /  6.1km/h 5.8mph /  9.3km/h 95% 0.01in /  0.3mm 0.00 W/m2 CLR
06:20 64.2 °F /  17.9 °C 62.8 °F /  17.1 °C 30in /  1014.7hPa ESE 3.9mph /  6.3km/h 5.8mph /  9.3km/h 95% 0in /  0.0mm 0.00 W/m2 OVC
06:25 64.2 °F /  17.9 °C 62.8 °F /  17.1 °C 30in /  1014.7hPa ESE 4.1mph /  6.6km/h 6.9mph /  11.1km/h 95% 0in /  0.0mm 0.00 W/m2 OVC
06:30 64.2 °F /  17.9 °C 62.8 °F /  17.1 °C 30in /  1014.6hPa ESE 5.3mph /  8.5km/h 6.9mph /  11.1km/h 95% 0in /  0.0mm 0.00 W/m2 OVC
06:35 64.2 °F /  17.9 °C 62.8 °F /  17.1 °C 30in /  1014.5hPa ESE 5mph /  8.0km/h 8.1mph /  13.0km/h 95% 0in /  0.0mm 0.00 W/m2 OVC
06:40 64.2 °F /  17.9 °C 62.8 °F /  17.1 °C 30in /  1014.3hPa East 7.9mph /  12.7km/h 10.4mph /  16.7km/h 95% 0in /  0.0mm 7.00 W/m2 OVC
06:45 64 °F /  17.8 °C 62.6 °F /  17.0 °C 30in /  1014.4hPa East 8.1mph /  13.0km/h 10.4mph /  16.7km/h 95% 0in /  0.0mm 9.00 W/m2 OVC
06:50 64.2 °F /  17.9 °C 62.8 °F /  17.1 °C 30in /  1014.6hPa East 6.6mph /  10.6km/h 8.1mph /  13.0km/h 95% 0in /  0.0mm 7.00 W/m2 SCT
06:55 64.2 °F /  17.9 °C 62.8 °F /  17.1 °C 30in /  1015.1hPa SE 2.8mph /  4.5km/h 6.9mph /  11.1km/h 95% 0in /  0.0mm 7.00 W/m2 BKN
07:00 64.2 °F /  17.9 °C 62.8 °F /  17.1 °C 30in /  1015.2hPa SSE 1.8mph /  2.9km/h 3.5mph /  5.6km/h 95% 0in /  0.0mm 11.00 W/m2 BKN
07:05 64.2 °F /  17.9 °C 62.8 °F /  17.1 °C 30in /  1015.5hPa ESE 2.9mph /  4.7km/h 5mph /  8.0km/h 95% 0in /  0.0mm 9.00 W/m2 BKN
07:10 64.4 °F /  18.0 °C 63 °F /  17.2 °C 30in /  1015.6hPa East 2.7mph /  4.3km/h 4.6mph /  7.4km/h 95% 0in /  0.0mm 9.00 W/m2 BKN
07:15 64.4 °F /  18.0 °C 63 °F /  17.2 °C 30in /  1015.6hPa ESE 3.7mph /  6.0km/h 5.8mph /  9.3km/h 95% 0in /  0.0mm 9.00 W/m2 BKN
07:20 64.4 °F /  18.0 °C 63 °F /  17.2 °C 30in /  1015.6hPa ESE 2.8mph /  4.5km/h 3.5mph /  5.6km/h 95% 0in /  0.0mm 9.00 W/m2 BKN
07:25 64.6 °F /  18.1 °C 63 °F /  17.2 °C 30in /  1015.6hPa East 4.4mph /  7.1km/h 5.8mph /  9.3km/h 95% 0in /  0.0mm 14.00 W/m2 BKN
07:30 64.6 °F /  18.1 °C 63 °F /  17.2 °C 30in /  1015.9hPa East 2.5mph /  4.0km/h 4.6mph /  7.4km/h 95% 0in /  0.0mm 16.00 W/m2 BKN
07:35 64.6 °F /  18.1 °C 63 °F /  17.2 °C 30in /  1015.8hPa East 3.6mph /  5.8km/h 5mph /  8.0km/h 95% 0in /  0.0mm 19.00 W/m2 BKN
07:40 64.6 °F /  18.1 °C 63 °F /  17.2 °C 30in /  1015.9hPa East 5.3mph /  8.5km/h 6.9mph /  11.1km/h 95% 0in /  0.0mm 21.00 W/m2 BKN
07:45 64.6 °F /  18.1 °C 63 °F /  17.2 °C 30in /  1016.0hPa ESE 3.1mph /  5.0km/h 5.8mph /  9.3km/h 95% 0in /  0.0mm 19.00 W/m2 BKN
07:50 64.6 °F /  18.1 °C 63.1 °F /  17.3 °C 30in /  1015.9hPa ESE 4.3mph /  6.9km/h 6mph /  9.7km/h 95% 0in /  0.0mm 37.00 W/m2 BKN
07:55 64.6 °F /  18.1 °C 63.1 °F /  17.3 °C 30in /  1015.9hPa ESE 4.7mph /  7.6km/h 6.9mph /  11.1km/h 95% 0in /  0.0mm 42.00 W/m2 BKN
08:00 64.8 °F /  18.2 °C 63 °F /  17.2 °C 30in /  1015.8hPa ESE 6.9mph /  11.1km/h 8.1mph /  13.0km/h 94% 0in /  0.0mm 46.00 W/m2 BKN
08:05 64.8 °F /  18.2 °C 63.3 °F /  17.4 °C 30in /  1015.9hPa SE 4.9mph /  7.9km/h 5.8mph /  9.3km/h 95% 0in /  0.0mm 46.00 W/m2 BKN
08:10 64.8 °F /  18.2 °C 63.3 °F /  17.4 °C 30in /  1015.9hPa East 4.7mph /  7.6km/h 7mph /  11.3km/h 95% 0in /  0.0mm 53.00 W/m2 BKN
08:15 64.9 °F /  18.3 °C 63.3 °F /  17.4 °C 30in /  1015.8hPa ESE 4.1mph /  6.6km/h 6.9mph /  11.1km/h 95% 0in /  0.0mm 62.00 W/m2 BKN
08:20 64.9 °F /  18.3 °C 63.1 °F /  17.3 °C 30in /  1015.9hPa East 3.1mph /  5.0km/h 5mph /  8.0km/h 94% 0in /  0.0mm 70.00 W/m2 BKN
08:25 64.9 °F /  18.3 °C 63.5 °F /  17.5 °C 30in /  1016.0hPa ESE 4.5mph /  7.2km/h 6.9mph /  11.1km/h 95% 0in /  0.0mm 69.00 W/m2 BKN
08:30 65.1 °F /  18.4 °C 63.3 °F /  17.4 °C 30in /  1015.9hPa ESE 3.5mph /  5.6km/h 8.1mph /  13.0km/h 94% 0in /  0.0mm 69.00 W/m2 BKN
08:35 65.3 °F /  18.5 °C 63.5 °F /  17.5 °C 30in /  1015.9hPa ESE 4.3mph /  6.9km/h 6.9mph /  11.1km/h 94% 0in /  0.0mm 74.00 W/m2 BKN
08:40 65.5 °F /  18.6 °C 63.7 °F /  17.6 °C 30in /  1015.8hPa ESE 5.8mph /  9.3km/h 9.2mph /  14.8km/h 94% 0in /  0.0mm 84.00 W/m2 BKN
08:45 65.5 °F /  18.6 °C 63.7 °F /  17.6 °C 30in /  1015.9hPa East 5.6mph /  9.0km/h 7mph /  11.3km/h 94% 0in /  0.0mm 98.00 W/m2 BKN
08:50 65.5 °F /  18.6 °C 63.7 °F /  17.6 °C 30in /  1015.9hPa East 5mph /  8.0km/h 9.2mph /  14.8km/h 94% 0in /  0.0mm 102.00 W/m2 BKN
08:55 65.7 °F /  18.7 °C 63.9 °F /  17.7 °C 30in /  1016.0hPa ESE 6.3mph /  10.1km/h 8.1mph /  13.0km/h 94% 0in /  0.0mm 109.00 W/m2 BKN
09:00 65.8 °F /  18.8 °C 64 °F /  17.8 °C 30in /  1016.1hPa ENE 4.8mph /  7.7km/h 6.9mph /  11.1km/h 94% 0in /  0.0mm 114.00 W/m2 BKN
09:05 66 °F /  18.9 °C 64.2 °F /  17.9 °C 30in /  1016.1hPa ESE 5.6mph /  9.0km/h 8.1mph /  13.0km/h 94% 0in /  0.0mm 127.00 W/m2 BKN
09:10 66.2 °F /  19.0 °C 64.4 °F /  18.0 °C 30in /  1016.3hPa ESE 5mph /  8.0km/h 7mph /  11.3km/h 94% 0in /  0.0mm 134.00 W/m2 BKN
09:15 66.4 °F /  19.1 °C 64.6 °F /  18.1 °C 30in /  1016.2hPa ESE 5.1mph /  8.2km/h 6.9mph /  11.1km/h 94% 0in /  0.0mm 135.00 W/m2 BKN
09:20 66.4 °F /  19.1 °C 64.6 °F /  18.1 °C 30in /  1016.2hPa SE 3mph /  4.8km/h 4.6mph /  7.4km/h 94% 0in /  0.0mm 134.00 W/m2 BKN
09:25 66.6 °F /  19.2 °C 64.8 °F /  18.2 °C 30in /  1016.1hPa ESE 4.5mph /  7.2km/h 5.8mph /  9.3km/h 94% 0in /  0.0mm 128.00 W/m2 BKN
09:30 66.7 °F /  19.3 °C 64.6 °F /  18.1 °C 30in /  1016.1hPa SE 3.8mph /  6.1km/h 6mph /  9.7km/h 93% 0in /  0.0mm 128.00 W/m2 BKN
09:35 66.7 °F /  19.3 °C 64.8 °F /  18.2 °C 30in /  1016.1hPa ESE 4.7mph /  7.6km/h 8.1mph /  13.0km/h 93% 0in /  0.0mm 141.00 W/m2 BKN
09:40 66.7 °F /  19.3 °C 64.8 °F /  18.2 °C 30in /  1016.1hPa ESE 4.2mph /  6.8km/h 6.9mph /  11.1km/h 93% 0in /  0.0mm 128.00 W/m2 BKN
09:45 66.9 °F /  19.4 °C 64.9 °F /  18.3 °C 30in /  1016.2hPa SE 2.2mph /  3.5km/h 3.5mph /  5.6km/h 93% 0in /  0.0mm 128.00 W/m2 BKN
09:50 67.3 °F /  19.6 °C 65.1 °F /  18.4 °C 30in /  1016.1hPa ESE 5.5mph /  8.8km/h 6.9mph /  11.1km/h 93% 0in /  0.0mm 192.00 W/m2 BKN
09:55 67.6 °F /  19.8 °C 65.8 °F /  18.8 °C 30in /  1016.2hPa ESE 4.3mph /  6.9km/h 7mph /  11.3km/h 94% 0in /  0.0mm 308.00 W/m2 BKN
10:00 68 °F /  20.0 °C 65.8 °F /  18.8 °C 30in /  1016.3hPa ESE 4.1mph /  6.6km/h 7mph /  11.3km/h 93% 0in /  0.0mm 330.00 W/m2 BKN
10:05 68.4 °F /  20.2 °C 66.2 °F /  19.0 °C 30in /  1016.3hPa ESE 5.2mph /  8.4km/h 7mph /  11.3km/h 93% 0in /  0.0mm 352.00 W/m2 SCT
10:10 68.7 °F /  20.4 °C 66.7 °F /  19.3 °C 30in /  1016.3hPa SE 4.2mph /  6.8km/h 6.9mph /  11.1km/h 93% 0in /  0.0mm 327.00 W/m2 SCT
10:15 69.3 °F /  20.7 °C 67.1 °F /  19.5 °C 30in /  1016.4hPa East 5.9mph /  9.5km/h 8.1mph /  13.0km/h 93% 0in /  0.0mm 265.00 W/m2 SCT
10:20 69.3 °F /  20.7 °C 66.7 °F /  19.3 °C 30in /  1016.5hPa SSE 4.8mph /  7.7km/h 9mph /  14.5km/h 92% 0in /  0.0mm 185.00 W/m2 BKN
10:25 69.1 °F /  20.6 °C 66.6 °F /  19.2 °C 30in /  1016.5hPa SE 5.9mph /  9.5km/h 9.2mph /  14.8km/h 92% 0in /  0.0mm 128.00 W/m2 BKN
10:30 68.7 °F /  20.4 °C 66.4 °F /  19.1 °C 30in /  1016.6hPa ESE 6.4mph /  10.3km/h 8.1mph /  13.0km/h 92% 0in /  0.0mm 107.00 W/m2 BKN
10:35 68.7 °F /  20.4 °C 66.4 °F /  19.1 °C 30in /  1016.6hPa ESE 6.5mph /  10.5km/h 11.5mph /  18.5km/h 92% 0in /  0.0mm 130.00 W/m2 BKN
10:40 68.5 °F /  20.3 °C 66.2 °F /  19.0 °C 30in /  1016.5hPa SE 6.1mph /  9.8km/h 9.2mph /  14.8km/h 92% 0in /  0.0mm 137.00 W/m2 BKN
10:45 68.4 °F /  20.2 °C 66 °F /  18.9 °C 30in /  1016.5hPa ESE 8mph /  12.9km/h 12mph /  19.3km/h 92% 0in /  0.0mm 67.00 W/m2 BKN
10:50 68.2 °F /  20.1 °C 65.7 °F /  18.7 °C 30in /  1016.5hPa SE 6.7mph /  10.8km/h 11mph /  17.7km/h 92% 0.01in /  0.3mm 47.00 W/m2 RA
10:55 67.8 °F /  19.9 °C 65.7 °F /  18.7 °C 30in /  1016.5hPa ESE 5.8mph /  9.3km/h 9.2mph /  14.8km/h 93% 0.02in /  0.5mm 44.00 W/m2 RA
11:00 67.6 °F /  19.8 °C 65.8 °F /  18.8 °C 30in /  1016.5hPa ESE 9.5mph /  15.3km/h 14mph /  22.5km/h 94% 0.04in /  1.0mm 49.00 W/m2 RA
11:05 67.5 °F /  19.7 °C 65.7 °F /  18.7 °C 30in /  1016.5hPa SE 7.7mph /  12.4km/h 11.5mph /  18.5km/h 94% 0.1in /  2.5mm 65.00 W/m2 RA
11:10 67.3 °F /  19.6 °C 65.5 °F /  18.6 °C 30in /  1016.4hPa SE 4.6mph /  7.4km/h 8.1mph /  13.0km/h 94% 0.14in /  3.6mm 81.00 W/m2 RA
11:15 67.6 °F /  19.8 °C 66 °F /  18.9 °C 30in /  1016.5hPa SSE 5.7mph /  9.2km/h 9.2mph /  14.8km/h 95% 0.16in /  4.1mm 90.00 W/m2 RA
11:20 67.6 °F /  19.8 °C 66.2 °F /  19.0 °C 30in /  1016.5hPa SSE 6.3mph /  10.1km/h 9.2mph /  14.8km/h 95% 0.17in /  4.3mm 98.00 W/m2 RA
11:25 67.6 °F /  19.8 °C 66.2 °F /  19.0 °C 30in /  1016.5hPa SE 6.4mph /  10.3km/h 8.1mph /  13.0km/h 95% 0.18in /  4.6mm 109.00 W/m2 RA
11:30 67.6 °F /  19.8 °C 66.2 °F /  19.0 °C 30in /  1016.5hPa SE 5mph /  8.0km/h 8.1mph /  13.0km/h 95% 0.2in /  5.1mm 120.00 W/m2 RA
11:35 67.6 °F /  19.8 °C 66.2 °F /  19.0 °C 30in /  1016.5hPa SE 4mph /  6.4km/h 7mph /  11.3km/h 95% 0.21in /  5.3mm 139.00 W/m2 RA
11:40 67.8 °F /  19.9 °C 66.4 °F /  19.1 °C 30in /  1016.3hPa ESE 4mph /  6.4km/h 7mph /  11.3km/h 95% 0.21in /  5.3mm 172.00 W/m2 RA
11:45 67.8 °F /  19.9 °C 66.7 °F /  19.3 °C 30in /  1016.3hPa ESE 4.9mph /  7.9km/h 6.9mph /  11.1km/h 96% 0.21in /  5.3mm 195.00 W/m2 RA
11:50 68.2 °F /  20.1 °C 66.9 °F /  19.4 °C 30in /  1016.3hPa SE 5.2mph /  8.4km/h 7mph /  11.3km/h 96% 0.21in /  5.3mm 213.00 W/m2 RA
11:55 68.4 °F /  20.2 °C 67.1 °F /  19.5 °C 30in /  1016.2hPa East 6.5mph /  10.5km/h 9.2mph /  14.8km/h 96% 0.2in /  5.1mm 229.00 W/m2 RA
Friend Weather